createdAt,value
2018-07-27T00:01:22.828Z,24.20
2018-07-27T00:03:51.767Z,24.10
2018-07-27T00:06:20.639Z,24.10
2018-07-27T00:08:49.533Z,24.10
2018-07-27T00:11:18.369Z,24.10
2018-07-27T00:13:47.159Z,24.10
2018-07-27T00:16:16.130Z,24.20
2018-07-27T00:18:45.163Z,24.10
2018-07-27T00:21:14.151Z,24.10
2018-07-27T00:23:43.008Z,24.20
2018-07-27T00:26:11.937Z,24.10
2018-07-27T00:28:40.859Z,24.00
2018-07-27T00:31:09.671Z,24.00
2018-07-27T00:33:39.621Z,23.90
2018-07-27T00:36:08.471Z,23.80
2018-07-27T00:38:37.348Z,23.80
2018-07-27T00:41:06.581Z,23.70
2018-07-27T00:43:35.442Z,23.70
2018-07-27T00:46:04.557Z,23.70
2018-07-27T00:48:34.204Z,23.70
2018-07-27T00:51:02.980Z,23.60
2018-07-27T00:53:31.866Z,23.60
2018-07-27T00:56:00.900Z,23.50
2018-07-27T00:58:29.934Z,23.50
2018-07-27T01:00:58.824Z,23.50
2018-07-27T01:03:27.672Z,23.40
2018-07-27T01:05:56.582Z,23.40
2018-07-27T01:08:25.570Z,23.30
2018-07-27T01:10:54.467Z,23.30
2018-07-27T01:13:23.381Z,23.30
2018-07-27T01:15:52.179Z,23.30
2018-07-27T01:18:21.047Z,23.30
2018-07-27T01:20:49.893Z,23.20
2018-07-27T01:23:18.765Z,23.20
2018-07-27T01:25:47.627Z,23.10
2018-07-27T01:28:16.477Z,23.10
2018-07-27T01:30:45.400Z,23.10
2018-07-27T01:33:14.643Z,23.00
2018-07-27T01:35:43.345Z,23.00
2018-07-27T01:38:12.420Z,23.00
2018-07-27T01:40:41.749Z,22.90
2018-07-27T01:43:11.277Z,22.90
2018-07-27T01:45:40.143Z,22.90
2018-07-27T01:48:08.967Z,22.90
2018-07-27T01:50:37.906Z,22.90
2018-07-27T01:53:06.786Z,22.90
2018-07-27T01:55:35.689Z,22.90
2018-07-27T01:58:04.572Z,22.80
2018-07-27T02:00:33.286Z,22.80
2018-07-27T02:03:02.100Z,22.80
2018-07-27T02:05:31.153Z,22.70
2018-07-27T02:07:59.916Z,22.70
2018-07-27T02:10:28.815Z,22.70
2018-07-27T02:12:57.721Z,22.60
2018-07-27T02:15:26.588Z,22.60
2018-07-27T02:17:55.427Z,22.50
2018-07-27T02:20:28.215Z,22.40
2018-07-27T02:22:57.114Z,22.30
2018-07-27T02:25:25.915Z,22.30
2018-07-27T02:27:54.841Z,22.30
2018-07-27T02:30:23.729Z,22.20
2018-07-27T02:32:52.635Z,22.20
2018-07-27T02:35:21.543Z,22.20
2018-07-27T02:37:50.705Z,22.20
2018-07-27T02:40:19.622Z,22.20
2018-07-27T02:42:48.568Z,22.20
2018-07-27T02:45:17.352Z,22.20
2018-07-27T02:47:48.972Z,22.10
2018-07-27T02:50:19.011Z,22.10
2018-07-27T02:52:48.137Z,22.00
2018-07-27T02:55:17.415Z,21.90
2018-07-27T02:57:46.635Z,21.90
2018-07-27T03:00:15.786Z,21.80
2018-07-27T03:02:44.673Z,21.70
2018-07-27T03:05:13.545Z,21.60
2018-07-27T03:10:10.857Z,21.50
2018-07-27T03:12:39.862Z,21.40
2018-07-27T03:15:09.039Z,21.40
2018-07-27T03:17:37.919Z,21.30
2018-07-27T03:20:07.011Z,21.20
2018-07-27T03:22:35.933Z,21.20
2018-07-27T03:25:05.224Z,21.20
2018-07-27T03:27:34.103Z,21.10
2018-07-27T03:30:03.292Z,21.20
2018-07-27T03:32:32.471Z,21.20
2018-07-27T03:35:01.393Z,21.30
2018-07-27T03:37:30.444Z,21.30
2018-07-27T03:39:59.300Z,21.40
2018-07-27T03:42:30.486Z,21.30
2018-07-27T03:44:59.251Z,21.40
2018-07-27T03:47:28.168Z,21.30
2018-07-27T03:49:57.060Z,21.40
2018-07-27T03:52:25.955Z,21.40
2018-07-27T03:54:54.817Z,21.40
2018-07-27T03:57:23.759Z,21.40
2018-07-27T03:59:52.629Z,21.40
2018-07-27T04:02:21.821Z,21.40
2018-07-27T04:04:50.678Z,21.40
2018-07-27T04:07:19.672Z,21.40
2018-07-27T04:09:48.500Z,21.40
2018-07-27T04:12:17.600Z,21.40
2018-07-27T04:14:46.396Z,21.40
2018-07-27T04:17:15.391Z,21.30
2018-07-27T04:19:44.886Z,21.40
2018-07-27T04:22:13.902Z,21.40
2018-07-27T04:24:43.056Z,21.30
2018-07-27T04:27:12.008Z,21.30
2018-07-27T04:29:40.886Z,21.30
2018-07-27T04:32:09.816Z,21.40
2018-07-27T04:34:39.000Z,21.40
2018-07-27T04:37:07.972Z,21.40
2018-07-27T04:39:36.984Z,21.50
2018-07-27T04:42:06.198Z,21.50
2018-07-27T04:44:35.180Z,21.50
2018-07-27T04:47:04.296Z,21.60
2018-07-27T04:49:33.149Z,21.60
2018-07-27T04:52:02.037Z,21.70
2018-07-27T04:54:30.879Z,21.80
2018-07-27T04:56:59.882Z,21.90
2018-07-27T04:59:28.732Z,22.10
2018-07-27T05:01:57.578Z,22.30
2018-07-27T05:04:26.437Z,22.30
2018-07-27T05:06:55.352Z,22.30
2018-07-27T05:09:24.238Z,22.50
2018-07-27T05:14:21.831Z,23.10
2018-07-27T05:16:50.567Z,23.30
2018-07-27T05:19:19.487Z,23.80
2018-07-27T05:24:16.829Z,25.00
2018-07-27T05:26:45.765Z,25.60
2018-07-27T05:29:14.575Z,26.30
2018-07-27T05:31:43.473Z,27.10
2018-07-27T05:34:43.021Z,27.50
2018-07-27T05:37:11.987Z,27.70
2018-07-27T05:39:40.792Z,28.20
2018-07-27T05:45:33.000Z,29.20
2018-07-27T05:48:01.853Z,29.50
2018-07-27T05:50:30.733Z,29.10
2018-07-27T05:52:59.706Z,28.90
2018-07-27T05:55:28.606Z,29.00
2018-07-27T05:57:57.506Z,28.90
2018-07-27T06:00:26.600Z,28.90
2018-07-27T06:02:55.502Z,28.80
2018-07-27T06:05:24.390Z,29.30
2018-07-27T06:07:53.174Z,29.90
2018-07-27T06:10:22.164Z,29.70
2018-07-27T06:12:51.069Z,29.70
2018-07-27T06:15:19.942Z,30.10
2018-07-27T06:17:49.219Z,30.30
2018-07-27T06:20:18.544Z,30.90
2018-07-27T06:22:48.004Z,31.70
2018-07-27T06:25:16.791Z,32.50
2018-07-27T06:27:45.794Z,33.20
2018-07-27T06:30:14.754Z,33.80
2018-07-27T06:32:43.588Z,34.30
2018-07-27T06:35:12.570Z,35.20
2018-07-27T06:37:41.504Z,35.50
2018-07-27T06:40:10.507Z,35.90
2018-07-27T06:42:39.405Z,36.40
2018-07-27T06:45:08.389Z,36.90
2018-07-27T06:47:37.237Z,37.00
2018-07-27T06:50:06.563Z,36.80
2018-07-27T06:52:35.509Z,36.60
2018-07-27T06:55:04.682Z,36.00
2018-07-27T06:57:33.563Z,35.10
2018-07-27T07:00:02.450Z,34.40
2018-07-27T07:02:31.446Z,33.90
2018-07-27T07:05:00.371Z,33.60
2018-07-27T07:07:29.327Z,32.70
2018-07-27T07:09:58.191Z,32.20
2018-07-27T07:12:27.076Z,31.90
2018-07-27T07:14:56.033Z,31.00
2018-07-27T07:17:24.837Z,30.40
2018-07-27T07:19:53.753Z,30.30
2018-07-27T07:22:22.735Z,30.70
2018-07-27T07:24:51.554Z,30.60
2018-07-27T07:27:20.776Z,30.60
2018-07-27T07:29:49.688Z,30.80
2018-07-27T07:32:18.621Z,30.80
2018-07-27T07:34:47.428Z,30.80
2018-07-27T07:37:16.333Z,31.00
2018-07-27T07:39:45.201Z,30.80
2018-07-27T07:42:14.300Z,30.70
2018-07-27T07:44:43.245Z,30.80
2018-07-27T07:47:12.119Z,30.40
2018-07-27T07:49:41.019Z,30.30
2018-07-27T07:52:09.887Z,30.40
2018-07-27T07:54:38.863Z,30.60
2018-07-27T07:57:07.633Z,30.50
2018-07-27T07:59:36.503Z,30.40
2018-07-27T08:02:05.439Z,30.30
2018-07-27T08:04:34.319Z,30.10
2018-07-27T08:07:03.389Z,30.10
2018-07-27T08:09:32.339Z,30.40
2018-07-27T08:12:01.647Z,30.30
2018-07-27T08:14:30.663Z,30.00
2018-07-27T08:16:59.527Z,29.90
2018-07-27T08:19:28.447Z,29.70
2018-07-27T08:21:57.375Z,29.50
2018-07-27T08:24:26.857Z,29.60
2018-07-27T08:26:58.129Z,29.40
2018-07-27T08:29:28.301Z,29.30
2018-07-27T08:31:57.832Z,29.60
2018-07-27T08:34:26.826Z,29.80
2018-07-27T08:36:55.797Z,29.50
2018-07-27T08:39:26.143Z,29.60
2018-07-27T08:41:55.111Z,29.70
2018-07-27T08:44:31.927Z,29.80
2018-07-27T08:47:00.804Z,29.80
2018-07-27T08:49:29.715Z,29.90
2018-07-27T08:51:58.625Z,29.50
2018-07-27T08:54:27.495Z,29.40
2018-07-27T08:56:56.231Z,29.40
2018-07-27T08:59:25.393Z,29.70
2018-07-27T09:01:54.292Z,30.10
2018-07-27T09:04:23.135Z,30.30
2018-07-27T09:06:52.240Z,30.30
2018-07-27T09:09:21.381Z,30.10
2018-07-27T09:11:50.292Z,29.90
2018-07-27T09:14:19.199Z,30.40
2018-07-27T09:16:48.022Z,30.80
2018-07-27T09:19:16.847Z,31.30
2018-07-27T09:21:45.626Z,31.80
2018-07-27T09:24:14.941Z,31.90
2018-07-27T09:26:43.712Z,32.40
2018-07-27T09:34:09.445Z,33.20
2018-07-27T09:36:38.721Z,33.10
2018-07-27T09:39:10.567Z,32.70
2018-07-27T09:41:39.579Z,32.60
2018-07-27T09:44:08.747Z,32.70
2018-07-27T09:46:37.589Z,32.40
2018-07-27T09:49:06.578Z,32.20
2018-07-27T09:51:35.570Z,31.80
2018-07-27T09:54:04.488Z,31.60
2018-07-27T09:56:33.563Z,31.60
2018-07-27T09:59:02.469Z,31.40
2018-07-27T10:01:31.365Z,31.80
2018-07-27T10:04:00.325Z,31.60
2018-07-27T10:06:29.169Z,31.40
2018-07-27T10:08:57.957Z,31.30
2018-07-27T10:11:26.765Z,31.50
2018-07-27T10:13:55.739Z,31.50
2018-07-27T10:16:24.534Z,31.60
2018-07-27T10:18:53.416Z,31.60
2018-07-27T10:21:22.289Z,31.90
2018-07-27T10:23:51.036Z,32.20
2018-07-27T10:26:19.886Z,32.30
2018-07-27T10:28:48.911Z,32.50
2018-07-27T10:31:18.048Z,32.80
2018-07-27T10:33:46.773Z,32.40
2018-07-27T10:36:15.602Z,32.10
2018-07-27T10:38:44.462Z,32.20
2018-07-27T10:41:13.917Z,32.90
2018-07-27T10:43:42.737Z,33.30
2018-07-27T10:46:11.585Z,33.50
2018-07-27T10:48:40.546Z,33.70
2018-07-27T10:51:09.449Z,33.80
2018-07-27T10:53:38.282Z,33.70
2018-07-27T10:56:07.149Z,33.30
2018-07-27T10:58:35.980Z,33.20
2018-07-27T11:01:04.920Z,33.30
2018-07-27T11:03:33.710Z,33.30
2018-07-27T11:06:02.929Z,33.40
2018-07-27T11:08:31.779Z,33.10
2018-07-27T11:11:00.757Z,32.90
2018-07-27T11:13:29.817Z,32.80
2018-07-27T11:15:58.849Z,32.70
2018-07-27T11:18:27.647Z,32.70
2018-07-27T11:20:56.393Z,32.60
2018-07-27T11:25:53.571Z,32.60
2018-07-27T11:28:22.359Z,32.40
2018-07-27T11:30:51.315Z,32.30
2018-07-27T11:33:21.070Z,32.30
2018-07-27T11:35:50.117Z,32.30
2018-07-27T11:38:18.857Z,32.20
2018-07-27T11:40:47.732Z,32.00
2018-07-27T11:43:16.566Z,31.80
2018-07-27T11:45:45.371Z,31.60
2018-07-27T11:48:14.210Z,31.70
2018-07-27T11:50:43.139Z,31.70
2018-07-27T11:53:12.180Z,31.70
2018-07-27T11:55:41.001Z,31.60
2018-07-27T11:58:09.831Z,31.30
2018-07-27T12:00:38.618Z,30.80
2018-07-27T12:03:07.173Z,29.70
2018-07-27T12:05:36.263Z,28.50
2018-07-27T12:08:05.097Z,27.40
2018-07-27T12:10:34.153Z,26.80
2018-07-27T12:13:03.103Z,26.40
2018-07-27T12:15:32.199Z,25.70
2018-07-27T12:18:01.343Z,25.10
2018-07-27T12:20:30.356Z,24.60
2018-07-27T12:22:59.451Z,24.10
2018-07-27T12:25:28.256Z,23.80
2018-07-27T12:27:58.277Z,23.70
2018-07-27T12:30:27.127Z,23.80
2018-07-27T12:32:56.161Z,24.00
2018-07-27T12:35:24.945Z,24.40
2018-07-27T12:37:53.885Z,24.80
2018-07-27T12:40:22.725Z,25.30
2018-07-27T12:42:52.324Z,25.80
2018-07-27T12:45:21.256Z,26.30
2018-07-27T12:47:50.245Z,26.60
2018-07-27T12:50:19.072Z,27.00
2018-07-27T12:52:47.855Z,27.40
2018-07-27T12:55:16.619Z,27.90
2018-07-27T12:57:45.509Z,28.30
2018-07-27T13:00:14.427Z,28.70
2018-07-27T13:02:43.365Z,28.90
2018-07-27T13:05:12.381Z,29.10
2018-07-27T13:07:41.267Z,29.20
2018-07-27T13:10:10.218Z,29.00
2018-07-27T13:12:39.351Z,29.00
2018-07-27T13:15:09.467Z,28.90
2018-07-27T13:17:38.629Z,28.90
2018-07-27T13:20:08.127Z,28.80
2018-07-27T13:22:37.127Z,28.80
2018-07-27T13:25:06.947Z,28.80
2018-07-27T13:27:35.676Z,29.20
2018-07-27T13:30:05.223Z,29.00
2018-07-27T13:32:34.083Z,29.10
2018-07-27T13:35:02.989Z,29.10
2018-07-27T13:37:33.063Z,29.20
2018-07-27T13:40:03.436Z,28.80
2018-07-27T13:42:34.139Z,28.60
2018-07-27T13:45:03.163Z,28.50
2018-07-27T13:47:32.116Z,28.70
2018-07-27T13:50:01.152Z,28.80
2018-07-27T13:52:30.063Z,28.70
2018-07-27T13:54:58.893Z,28.80
2018-07-27T13:57:27.813Z,28.80
2018-07-27T13:59:56.723Z,28.80
2018-07-27T14:02:25.533Z,28.90
2018-07-27T14:04:54.372Z,29.30
2018-07-27T14:07:23.303Z,29.90
2018-07-27T14:09:52.101Z,30.00
2018-07-27T14:12:21.167Z,29.80
2018-07-27T14:14:50.001Z,29.80
2018-07-27T14:17:18.912Z,30.20
2018-07-27T14:19:47.813Z,30.40
2018-07-27T14:22:16.777Z,30.30
2018-07-27T14:24:45.885Z,30.10
2018-07-27T14:27:14.804Z,30.20
2018-07-27T14:29:43.617Z,31.00
2018-07-27T14:32:12.552Z,31.70
2018-07-27T14:34:41.595Z,32.40
2018-07-27T14:37:10.632Z,33.40
2018-07-27T14:39:39.562Z,33.70
2018-07-27T14:42:08.439Z,35.10
2018-07-27T14:44:37.371Z,36.20
2018-07-27T14:47:06.301Z,37.10
2018-07-27T14:52:04.377Z,38.00
2018-07-27T14:54:33.247Z,38.40
2018-07-27T14:57:02.623Z,38.60
2018-07-27T14:59:31.564Z,38.80
2018-07-27T15:02:00.273Z,39.60
2018-07-27T15:04:29.235Z,39.80
2018-07-27T15:06:58.063Z,39.20
2018-07-27T15:09:26.984Z,38.60
2018-07-27T15:11:55.877Z,38.20
2018-07-27T15:14:24.673Z,37.30
2018-07-27T15:16:53.515Z,36.40
2018-07-27T15:19:22.421Z,36.20
2018-07-27T15:21:51.241Z,36.10
2018-07-27T15:24:20.159Z,35.70
2018-07-27T15:26:49.018Z,35.10
2018-07-27T15:29:17.931Z,34.40
2018-07-27T15:31:46.910Z,33.40
2018-07-27T15:34:15.856Z,33.30
2018-07-27T15:36:44.891Z,33.60
2018-07-27T15:39:14.254Z,34.30
2018-07-27T15:41:43.169Z,35.10
2018-07-27T15:44:11.998Z,35.50
2018-07-27T15:46:40.964Z,35.60
2018-07-27T15:49:13.014Z,35.30
2018-07-27T15:51:42.968Z,35.50
2018-07-27T15:54:12.029Z,35.80
2018-07-27T15:56:40.840Z,36.00
2018-07-27T15:59:09.686Z,35.90
2018-07-27T16:01:38.589Z,35.70
2018-07-27T16:04:08.415Z,35.30
2018-07-27T16:06:37.223Z,34.50
2018-07-27T16:09:08.084Z,34.00
2018-07-27T16:11:36.884Z,33.80
2018-07-27T16:14:05.947Z,33.60
2018-07-27T16:16:34.791Z,33.40
2018-07-27T16:19:03.708Z,33.20
2018-07-27T16:21:32.566Z,33.00
2018-07-27T16:24:01.735Z,32.70
2018-07-27T16:26:30.627Z,32.70
2018-07-27T16:28:59.452Z,32.70
2018-07-27T16:31:28.263Z,32.70
2018-07-27T16:33:57.162Z,32.30
2018-07-27T16:36:26.095Z,32.30
2018-07-27T16:41:23.400Z,31.90
2018-07-27T16:43:52.481Z,31.70
2018-07-27T16:46:21.360Z,31.70
2018-07-27T16:51:21.489Z,31.40
2018-07-27T16:53:50.691Z,31.30
2018-07-27T16:56:19.486Z,31.40
2018-07-27T16:58:48.289Z,31.50
2018-07-27T17:01:17.068Z,31.40
2018-07-27T17:03:45.937Z,31.40
2018-07-27T17:06:14.813Z,31.30
2018-07-27T17:08:43.862Z,31.10
2018-07-27T17:11:12.675Z,31.00
2018-07-27T17:13:41.490Z,30.90
2018-07-27T17:16:10.382Z,30.80
2018-07-27T17:18:39.180Z,30.80
2018-07-27T17:21:07.965Z,30.70
2018-07-27T17:23:37.036Z,30.60
2018-07-27T17:26:06.021Z,30.50
2018-07-27T17:28:34.883Z,30.50
2018-07-27T17:31:03.797Z,30.40
2018-07-27T17:33:32.577Z,30.40
2018-07-27T17:36:01.370Z,30.30
2018-07-27T17:38:30.254Z,30.20
2018-07-27T17:40:59.035Z,30.10
2018-07-27T17:43:27.825Z,30.00
2018-07-27T17:45:56.675Z,29.80
2018-07-27T17:48:25.760Z,29.60
2018-07-27T17:50:54.724Z,29.50
2018-07-27T17:53:23.614Z,29.30
2018-07-27T17:55:52.452Z,29.20
2018-07-27T17:58:21.258Z,29.10
2018-07-27T18:00:50.212Z,29.00
2018-07-27T18:03:19.298Z,28.90
2018-07-27T18:05:48.206Z,28.80
2018-07-27T18:08:17.174Z,28.70
2018-07-27T18:10:46.288Z,28.60
2018-07-27T18:13:15.940Z,28.60
2018-07-27T18:15:44.739Z,28.50
2018-07-27T18:18:15.118Z,28.40
2018-07-27T18:20:44.346Z,28.40
2018-07-27T18:23:13.220Z,28.30
2018-07-27T18:25:42.143Z,28.20
2018-07-27T18:28:10.988Z,28.10
2018-07-27T18:30:39.811Z,28.10
2018-07-27T18:33:09.221Z,28.00
2018-07-27T18:35:38.324Z,28.00
2018-07-27T18:38:08.073Z,27.90
2018-07-27T18:40:36.952Z,27.80
2018-07-27T18:43:06.413Z,27.70
2018-07-27T18:45:35.787Z,27.70
2018-07-27T18:48:04.724Z,27.50
2018-07-27T18:50:33.530Z,27.40
2018-07-27T18:53:02.332Z,27.30
2018-07-27T18:55:31.262Z,27.20
2018-07-27T18:58:00.127Z,27.10
2018-07-27T19:00:29.022Z,27.00
2018-07-27T19:02:57.972Z,26.90
2018-07-27T19:05:26.687Z,26.90
2018-07-27T19:07:55.468Z,26.80
2018-07-27T19:10:24.316Z,26.70
2018-07-27T19:12:53.158Z,26.60
2018-07-27T19:15:22.024Z,26.40
2018-07-27T19:17:50.822Z,26.30
2018-07-27T19:20:19.814Z,26.20
2018-07-27T19:22:48.615Z,26.10
2018-07-27T19:25:17.628Z,26.00
2018-07-27T19:27:46.524Z,25.90
2018-07-27T19:30:15.520Z,25.80
2018-07-27T19:32:44.532Z,25.70
2018-07-27T19:37:42.078Z,25.40
2018-07-27T19:40:10.852Z,25.30
2018-07-27T19:42:39.646Z,25.20
2018-07-27T19:45:08.918Z,25.10
2018-07-27T19:47:38.222Z,25.00
2018-07-27T19:50:07.302Z,24.90
2018-07-27T19:52:36.252Z,24.80
2018-07-27T19:55:05.224Z,24.80
2018-07-27T19:57:34.122Z,24.70
2018-07-27T20:00:03.166Z,24.60
2018-07-27T20:02:32.155Z,24.60
2018-07-27T20:05:00.926Z,24.50
2018-07-27T20:07:29.700Z,24.40
2018-07-27T20:09:58.542Z,24.40
2018-07-27T20:12:27.348Z,24.30
2018-07-27T20:14:56.464Z,24.20
2018-07-27T20:17:25.660Z,24.20
2018-07-27T20:19:54.475Z,24.10
2018-07-27T20:22:23.146Z,24.10
2018-07-27T20:24:51.848Z,24.00
2018-07-27T20:29:49.012Z,23.90
2018-07-27T20:34:46.150Z,23.80
2018-07-27T20:37:14.976Z,23.70
2018-07-27T20:39:44.094Z,23.70
2018-07-27T20:42:12.867Z,23.60
2018-07-27T20:44:41.648Z,23.60
2018-07-27T20:47:10.509Z,23.50
2018-07-27T20:49:39.339Z,23.40
2018-07-27T20:52:08.306Z,23.30
2018-07-27T20:54:37.069Z,23.30
2018-07-27T20:57:06.708Z,23.30
2018-07-27T20:59:35.618Z,23.20
2018-07-27T21:02:04.439Z,23.20
2018-07-27T21:04:33.332Z,23.10
2018-07-27T21:07:02.125Z,23.10
2018-07-27T21:09:31.039Z,23.00
2018-07-27T21:11:59.816Z,23.00
2018-07-27T21:14:28.894Z,22.90
2018-07-27T21:16:57.965Z,22.90
2018-07-27T21:19:26.879Z,22.90
2018-07-27T21:21:55.811Z,22.80
2018-07-27T21:24:24.489Z,22.70
2018-07-27T21:26:53.381Z,22.70
2018-07-27T21:29:22.264Z,22.60
2018-07-27T21:31:51.379Z,22.60
2018-07-27T21:36:49.700Z,22.60
2018-07-27T21:39:18.482Z,22.50
2018-07-27T21:41:47.348Z,22.50
2018-07-27T21:44:16.124Z,22.40
2018-07-27T21:46:44.930Z,22.40
2018-07-27T21:49:13.859Z,22.40
2018-07-27T21:51:42.729Z,22.40
2018-07-27T21:54:11.486Z,22.30
2018-07-27T21:56:40.268Z,22.30
2018-07-27T21:59:09.040Z,22.20
2018-07-27T22:01:37.876Z,22.10
2018-07-27T22:04:06.846Z,22.10
2018-07-27T22:06:35.643Z,22.00
2018-07-27T22:09:06.628Z,22.00
2018-07-27T22:11:35.481Z,22.00
2018-07-27T22:14:04.583Z,21.90
2018-07-27T22:16:33.646Z,21.90
2018-07-27T22:19:02.408Z,21.80
2018-07-27T22:21:31.323Z,21.80
2018-07-27T22:24:00.342Z,21.70
2018-07-27T22:26:29.098Z,21.70
2018-07-27T22:28:57.916Z,21.70
2018-07-27T22:31:26.717Z,21.70
2018-07-27T22:33:55.580Z,21.70
2018-07-27T22:36:24.911Z,21.60
2018-07-27T22:38:53.792Z,21.60
2018-07-27T22:41:22.776Z,21.60
2018-07-27T22:43:51.706Z,21.60
2018-07-27T22:46:20.458Z,21.60
2018-07-27T22:48:49.580Z,21.60
2018-07-27T22:51:18.529Z,21.60
2018-07-27T22:53:47.313Z,21.60
2018-07-27T22:56:16.105Z,21.60
2018-07-27T22:58:44.886Z,21.60
2018-07-27T23:01:13.658Z,21.60
2018-07-27T23:03:42.429Z,21.50
2018-07-27T23:06:11.872Z,21.50
2018-07-27T23:08:40.681Z,21.50
2018-07-27T23:11:09.488Z,21.40
2018-07-27T23:13:38.727Z,21.30
2018-07-27T23:16:13.451Z,21.30
2018-07-27T23:18:42.446Z,21.20
2018-07-27T23:21:11.279Z,21.20
2018-07-27T23:23:39.980Z,21.20
2018-07-27T23:26:09.000Z,21.10
2018-07-27T23:28:37.815Z,21.10
2018-07-27T23:31:06.713Z,21.10
2018-07-27T23:33:35.695Z,21.10
2018-07-27T23:36:04.549Z,21.10
2018-07-27T23:38:33.355Z,21.10
2018-07-27T23:41:02.305Z,21.10
2018-07-27T23:43:31.090Z,21.10
2018-07-27T23:45:59.852Z,21.00
2018-07-27T23:48:28.601Z,21.00
2018-07-27T23:50:57.551Z,20.90
2018-07-27T23:53:26.365Z,20.90
2018-07-27T23:55:55.224Z,20.80
2018-07-27T23:58:24.103Z,20.80
